茨城 の空港の天気 - METARとTAF

茨城空港(百里飛行場) ( RJAH / IBR ) - 茨城県小美玉市
飛行場実況気象(Metar)
観測時間04/22 01:00 JST (04/21 16:00 UTC)
風向・風速北北東 1m/s
視程10km以上
天気現象弱い雨
少しの雲 雲底高度 910m
全天を覆う雲 雲底高度 3050m
気温12℃
湿度94%
気圧1012hPa
METARRJAH 211600Z 02002KT 9999 -RA FEW030 OVC100 12/11 Q1012
過去の天気等 Google飛行場航空写真 Wunderground天気予報

過去48時間のMETAR

飛行場予報(TAF)
発表時間: 4/21 20:05 JST (4/21 11:05 UTC)
予報対象時間: 21日21時 JST ~ 23日3時 JST
風向・風速北北東 2m/s
視程10km以上
少しの雲 雲底高度 610m
22日3時 JST ~ 22日8時 JST に一時的に
視程3000m
天気現象もや
少しの雲 雲底高度 90m
全天の8割程度の雲 雲底高度 240m
22日9時 JST ~ 22日12時 JST に徐々に
風向・風速東南東 5m/s
22日15時 JST ~ 22日18時 JST に徐々に
風向・風速東北東 3m/s
TAF RJAH 211105Z 2112/2218 02004KT 9999 FEW020
TEMPO 2118/2123 3000 BR FEW003 BKN008
BECMG 2200/2203 12010KT
BECMG 2206/2209 06006KT
日本の空港のMETAR・TAFへのリンク

RJTT 東京国際空港
RJAA 新東京国際空港
RJBB 関西国際空港
RJOO 大阪空港
RJGG 中部国際空港
RJCC 新千歳空港
RJFF 福岡空港
ROAH 那覇空港


RJEC 旭川空港
RJCH 函館空港
RJCK 釧路空港
RJCM 女満別空港
RJCB 帯広空港
RJSA 青森空港
RJSS 仙台空港
RJSK 秋田空港
RJSF 福島空港
RJAH 茨城空港
RJSN 新潟空港
RJNT 富山空港
RJNK 小松飛行場
RJNS 静岡空港
RJOH 美保飛行場
RJOC 出雲空港
RJOB 岡山空港
RJOA 広島空港
RJOI 岩国飛行場
RJOT 高松空港
RJOM 松山空港
RJOK 高知空港
RJFR 北九州空港
RJFT 熊本空港
RJFU 長崎空港
RJFS 佐賀空港
RJFO 大分空港
RJFM 宮崎空港
RJFK 鹿児島空港
ROIG 石垣島空港
RJTY 横田飛行場
ROTM 普天間飛行場
RODN 嘉手納飛行場